Terr Demajagua 2, Puerto Rico
Current Conditions -  °F | °C
As of 1:53 PM on Tuesday 21 Oct 2014 (Local Time) from TJNR Reporting Station
Clear Clear  
Wind Chill: 89°   Ceiling: Unl
Heat Index: 96°   Visibility: 10mi
Dew Point: 72°   Wind: 9mph
Humidity: 57%   Direction: 90°E
Pressure: 29.93"   Gusts: NA
Location:  18.3304°N, 65.6573°W
Report Text: TJNR 211753Z AUTO 09008KT 10SM CLR 32/22 A2993 RMK AO2 SLP136 T03170222 10322 20283 56026
Loading
Personal Weather Stations






























Interactive Weather Map
Tropical Storm Tracking
New forecast layout! Learn more

10-Day Weather Forecast

Advertisements
Track Severe Weather on mobile